Time;durP1;ratioP1;P1;durP2;ratioP2;P2;SDS_P1;SDS_P2;PMS_P1;PMS_P2;Temp;Humidity;BMP_temperature;BMP_pressure;BME280_temperature;BME280_humidity;BME280_pressure;Samples;Min_cycle;Max_cycle;Signal;HPM_P1;HPM_P2
2022/10/07 00:00:12;;;;;;;5.97;2.30;;;;;;;8.55;100.00;94093.91;2096000;28;20078;-77
2022/10/07 00:01:13;;;;;;;7.32;2.20;;;;;;;8.55;100.00;94103.81;2088146;28;20029;-77
2022/10/07 00:02:14;;;;;;;11.05;2.65;;;;;;;8.50;100.00;94102.28;2087838;28;20430;-76
2022/10/07 00:03:16;;;;;;;8.25;2.45;;;;;;;8.44;100.00;94109.13;2096697;28;20044;-77
2022/10/07 00:04:17;;;;;;;3.55;2.38;;;;;;;8.41;100.00;94101.13;2088132;28;20020;-76
2022/10/07 00:05:17;;;;;;;7.55;2.50;;;;;;;8.31;100.00;94098.03;2088013;28;20140;-76
2022/10/07 00:06:20;;;;;;;4.18;2.28;;;;;;;8.30;100.00;94096.50;2096619;28;20028;-76
2022/10/07 00:07:21;;;;;;;10.73;2.63;;;;;;;8.27;100.00;94097.25;2095545;28;20052;-76
2022/10/07 00:08:22;;;;;;;5.15;2.40;;;;;;;8.27;100.00;94094.59;2079910;28;20073;-76
2022/10/07 00:09:23;;;;;;;6.53;2.22;;;;;;;8.26;100.00;94095.75;2088271;28;20032;-75
2022/10/07 00:10:24;;;;;;;7.53;2.70;;;;;;;8.20;100.00;94093.81;2097295;28;20125;-76
2022/10/07 00:11:27;;;;;;;9.95;2.95;;;;;;;8.16;100.00;94095.69;2096719;28;20028;-76
2022/10/07 00:12:28;;;;;;;7.82;2.83;;;;;;;8.09;100.00;94088.47;2095345;28;20453;-76
2022/10/07 00:13:29;;;;;;;6.53;2.10;;;;;;;8.15;100.00;94091.50;2096063;28;20024;-76
2022/10/07 00:14:30;;;;;;;8.75;2.33;;;;;;;8.05;100.00;94091.09;2096381;28;20426;-76
2022/10/07 00:15:31;;;;;;;8.07;2.17;;;;;;;8.02;100.00;94089.19;2096503;28;20025;-78
2022/10/07 00:16:39;;;;;;;5.63;2.20;;;;;;;8.05;100.00;94087.69;2080827;28;20080;-77
2022/10/07 00:17:40;;;;;;;7.28;2.28;;;;;;;7.98;100.00;94085.75;2079118;28;20025;-76
2022/10/07 00:18:41;;;;;;;9.02;2.30;;;;;;;8.00;100.00;94088.03;2079770;28;20025;-76
2022/10/07 00:19:42;;;;;;;7.93;2.50;;;;;;;7.95;100.00;94088.41;2088418;28;20036;-77
2022/10/07 00:20:43;;;;;;;14.18;2.65;;;;;;;8.01;100.00;94086.91;2088946;28;20025;-77
2022/10/07 00:21:45;;;;;;;5.78;2.35;;;;;;;7.92;100.00;94084.59;2088083;28;20032;-76
2022/10/07 00:22:46;;;;;;;3.83;1.85;;;;;;;7.95;100.00;94078.53;2084220;28;20108;-77
2022/10/07 00:23:48;;;;;;;8.27;2.33;;;;;;;7.95;100.00;94080.44;2087558;28;20043;-76
2022/10/07 00:24:49;;;;;;;7.15;3.17;;;;;;;7.86;100.00;94085.31;2087805;28;20021;-77
2022/10/07 00:25:50;;;;;;;7.85;2.33;;;;;;;7.82;100.00;94080.75;2087924;28;20083;-76
2022/10/07 00:26:51;;;;;;;8.02;2.60;;;;;;;7.80;100.00;94088.34;2088808;28;20045;-77
2022/10/07 00:27:52;;;;;;;10.25;2.35;;;;;;;7.82;100.00;94074.66;2085698;28;20785;-76
2022/10/07 00:28:54;;;;;;;9.40;2.60;;;;;;;7.89;100.00;94085.31;2082963;28;20467;-76
2022/10/07 00:29:55;;;;;;;14.00;2.75;;;;;;;7.86;100.00;94080.78;2079751;28;20025;-77
2022/10/07 00:30:59;;;;;;;9.82;2.50;;;;;;;7.81;100.00;94078.44;2079276;28;20061;-76
2022/10/07 00:32:00;;;;;;;7.32;3.05;;;;;;;7.63;100.00;94073.03;2088389;28;20087;-77
2022/10/07 00:33:01;;;;;;;9.48;2.60;;;;;;;7.68;100.00;94083.34;2087865;28;20414;-78
2022/10/07 00:34:03;;;;;;;4.57;1.83;;;;;;;7.71;100.00;94077.25;2079537;28;20036;-77
2022/10/07 00:35:05;;;;;;;7.53;2.50;;;;;;;7.74;100.00;94076.53;2079568;28;20030;-77
2022/10/07 00:36:19;;;;;;;8.07;2.45;;;;;;;7.74;100.00;94079.19;2087166;28;20601;-77
2022/10/07 00:37:20;;;;;;;2.78;1.75;;;;;;;7.74;100.00;94079.19;2087780;28;20052;-77
2022/10/07 00:38:21;;;;;;;4.57;2.25;;;;;;;7.73;100.00;94071.59;2085256;28;20519;-77
2022/10/07 00:39:21;;;;;;;8.95;3.17;;;;;;;7.78;100.00;94071.97;2082932;28;20143;-77
2022/10/07 00:40:22;;;;;;;7.65;2.83;;;;;;;7.75;100.00;94066.63;2088758;28;20037;-77
2022/10/07 00:41:28;;;;;;;6.18;3.00;;;;;;;7.70;100.00;94070.44;2088117;28;20083;-77
2022/10/07 00:42:31;;;;;;;6.20;2.80;;;;;;;7.61;100.00;94072.66;2080937;28;20029;-77
2022/10/07 00:43:35;;;;;;;10.38;2.72;;;;;;;7.61;100.00;94067.34;2079463;28;20042;-77
2022/10/07 00:44:43;;;;;;;8.40;2.67;;;;;;;7.67;100.00;94068.50;2080281;28;20029;-77
2022/10/07 00:45:44;;;;;;;10.35;3.22;;;;;;;7.66;100.00;94066.97;2087974;28;20029;-76
2022/10/07 00:46:45;;;;;;;23.17;3.00;;;;;;;7.66;100.00;94060.91;2084832;28;20067;-76
2022/10/07 00:47:50;;;;;;;6.68;2.50;;;;;;;7.66;100.00;94071.53;2079780;28;20344;-76
2022/10/07 00:48:51;;;;;;;6.63;2.63;;;;;;;7.75;100.00;94064.75;2079181;28;20061;-76
2022/10/07 00:50:23;;;;;;;6.53;2.30;;;;;;;7.71;100.00;94066.63;2096367;28;20151;-76
2022/10/07 00:51:24;;;;;;;5.68;2.17;;;;;;;7.73;100.00;94074.25;2082358;28;20710;-77
2022/10/07 00:52:29;;;;;;;9.30;2.63;;;;;;;7.72;100.00;94062.06;2071786;28;20060;-76
2022/10/07 00:53:34;;;;;;;8.05;2.50;;;;;;;7.66;100.00;94066.97;2087965;28;20027;-76
2022/10/07 00:54:37;;;;;;;8.45;2.60;;;;;;;7.70;100.00;94075.75;2084159;28;20017;-75
2022/10/07 00:55:38;;;;;;;4.97;2.50;;;;;;;7.64;100.00;94065.81;2087988;28;20029;-75
2022/10/07 00:56:41;;;;;;;7.13;2.00;;;;;;;7.59;100.00;94061.63;2087991;28;20603;-76
2022/10/07 00:57:43;;;;;;;6.95;2.58;;;;;;;7.43;100.00;94069.91;2088625;28;20468;-76
2022/10/07 00:58:47;;;;;;;9.32;2.75;;;;;;;7.44;100.00;94066.13;2088555;28;20116;-76
2022/10/07 00:59:48;;;;;;;5.93;2.80;;;;;;;7.42;100.00;94062.28;2087215;28;20045;-75
2022/10/07 01:00:49;;;;;;;6.35;2.17;;;;;;;7.39;100.00;94061.16;2079745;28;20087;-76
2022/10/07 01:01:50;;;;;;;7.45;2.60;;;;;;;7.40;100.00;94064.56;2079104;28;20037;-76
2022/10/07 01:02:52;;;;;;;7.47;2.50;;;;;;;7.37;100.00;94060.75;2087794;28;20025;-75
2022/10/07 01:03:53;;;;;;;9.52;2.67;;;;;;;7.28;100.00;94058.41;2088856;28;20025;-76
2022/10/07 01:04:58;;;;;;;7.07;2.60;;;;;;;7.31;100.00;94049.69;2079119;28;20391;-76
2022/10/07 01:05:59;;;;;;;6.75;2.53;;;;;;;7.21;100.00;94053.06;2080254;28;20038;-76
2022/10/07 01:07:00;;;;;;;8.75;2.25;;;;;;;7.29;100.00;94051.22;2087228;28;20514;-76
2022/10/07 01:08:01;;;;;;;8.80;3.00;;;;;;;7.29;100.00;94051.22;2079459;28;20037;-76
2022/10/07 01:09:02;;;;;;;8.07;2.30;;;;;;;7.18;100.00;94053.78;2079685;28;20033;-76
2022/10/07 01:10:05;;;;;;;9.10;2.53;;;;;;;7.19;100.00;94052.66;2087108;28;20041;-76
2022/10/07 01:11:32;;;;;;;6.45;2.30;;;;;;;7.23;100.00;94053.44;2087714;28;20033;-76
2022/10/07 01:13:02;;;;;;;7.03;2.53;;;;;;;7.26;100.00;94052.72;2084326;28;20608;-77
2022/10/07 01:14:22;;;;;;;6.93;2.35;;;;;;;7.23;100.00;94050.78;2084413;28;20028;-77
2022/10/07 01:15:36;;;;;;;10.15;3.13;;;;;;;7.09;100.00;94047.28;2079393;28;20092;-77
2022/10/07 01:16:55;;;;;;;8.18;2.40;;;;;;;7.18;100.00;94048.47;2074877;28;20113;-77
2022/10/07 01:18:16;;;;;;;2.78;2.53;;;;;;;7.11;100.00;94050.31;2088352;28;20048;-77
2022/10/07 01:19:51;;;;;;;8.80;2.58;;;;;;;7.17;100.00;94040.88;2085992;28;20033;-76
2022/10/07 01:21:03;;;;;;;8.00;2.80;;;;;;;7.16;100.00;94056.06;2085303;28;20044;-77
2022/10/07 01:22:42;;;;;;;7.50;3.10;;;;;;;7.05;100.00;94040.03;2069257;28;20125;-78
2022/10/07 01:24:16;;;;;;;11.75;2.92;;;;;;;7.05;100.00;94044.59;2078992;28;20041;-79
2022/10/07 01:25:27;;;;;;;13.18;2.92;;;;;;;7.11;100.00;94042.34;2083268;28;20040;-78
2022/10/07 01:26:56;;;;;;;4.50;2.30;;;;;;;7.10;100.00;94038.94;2082165;28;20455;-79
2022/10/07 01:28:06;;;;;;;4.97;2.40;;;;;;;7.06;100.00;94032.81;2090984;28;20020;-79
2022/10/07 01:29:27;;;;;;;18.08;2.83;;;;;;;7.04;100.00;94032.44;2075773;28;20132;-77
2022/10/07 01:30:33;;;;;;;9.43;2.50;;;;;;;7.05;100.00;94026.00;2076801;28;20028;-78
2022/10/07 01:31:43;;;;;;;9.15;3.13;;;;;;;6.96;100.00;94023.66;2071997;28;20381;-77
2022/10/07 01:32:53;;;;;;;4.82;2.50;;;;;;;6.99;100.00;94024.81;2087444;28;20021;-77
2022/10/07 01:33:55;;;;;;;7.25;3.08;;;;;;;6.99;100.00;94025.59;2088377;28;20096;-76
2022/10/07 01:34:57;;;;;;;7.75;2.70;;;;;;;6.88;100.00;94023.97;2087989;28;20032;-77
2022/10/07 01:36:05;;;;;;;8.32;2.95;;;;;;;6.93;100.00;94028.94;2088218;28;20040;-76
2022/10/07 01:37:10;;;;;;;9.40;3.05;;;;;;;6.86;100.00;94032.31;2084699;28;20043;-77
2022/10/07 01:38:15;;;;;;;15.63;3.03;;;;;;;6.81;100.00;94022.81;2089543;28;20078;-78
2022/10/07 01:39:19;;;;;;;12.15;2.88;;;;;;;6.80;100.00;94028.47;2089505;28;20025;-77
2022/10/07 01:40:37;;;;;;;8.88;2.75;;;;;;;6.77;100.00;94018.59;2089398;28;20378;-78
2022/10/07 01:41:39;;;;;;;13.13;3.03;;;;;;;6.83;100.00;94022.44;2083891;28;20029;-77
2022/10/07 01:42:41;;;;;;;8.75;3.45;;;;;;;6.79;100.00;94016.31;2088014;28;20072;-78
2022/10/07 01:43:45;;;;;;;8.98;2.78;;;;;;;6.79;100.00;94016.31;2088155;28;20056;-77
2022/10/07 01:44:50;;;;;;;8.00;3.28;;;;;;;6.74;100.00;94014.78;2088073;28;20024;-76
2022/10/07 01:45:53;;;;;;;7.75;2.60;;;;;;;6.76;100.00;94020.50;2087219;28;20033;-76
2022/10/07 01:46:54;;;;;;;8.88;3.10;;;;;;;6.81;100.00;94016.72;2083695;28;20075;-76
2022/10/07 01:47:57;;;;;;;7.88;2.95;;;;;;;6.78;100.00;94026.19;2103948;28;20020;-76
2022/10/07 01:48:58;;;;;;;6.35;2.67;;;;;;;6.75;100.00;94018.19;2103716;28;20084;-75
2022/10/07 01:49:59;;;;;;;4.57;2.72;;;;;;;6.78;100.00;94020.88;2103547;28;20466;-76
2022/10/07 01:51:02;;;;;;;11.35;3.40;;;;;;;6.79;100.00;94022.41;2095259;28;20120;-76
2022/10/07 01:52:23;;;;;;;11.98;3.10;;;;;;;6.72;100.00;94011.72;2083600;28;20116;-76
2022/10/07 01:53:48;;;;;;;7.95;3.20;;;;;;;6.72;100.00;94017.06;2087133;28;20028;-75
2022/10/07 01:55:06;;;;;;;11.05;2.97;;;;;;;6.77;100.00;94014.03;2094144;28;20020;-75
2022/10/07 01:56:26;;;;;;;8.73;3.17;;;;;;;6.78;100.00;94009.50;2075260;28;20037;-76
2022/10/07 01:57:31;;;;;;;8.48;2.90;;;;;;;6.89;100.00;94009.56;2081788;28;20529;-76
2022/10/07 01:58:50;;;;;;;12.32;2.72;;;;;;;6.75;100.00;94013.63;2087327;28;20056;-76
2022/10/07 02:00:01;;;;;;;13.27;3.13;;;;;;;6.79;100.00;94011.75;2087403;28;20145;-76
2022/10/07 02:01:32;;;;;;;9.52;3.05;;;;;;;6.84;100.00;94007.25;2083644;28;20095;-76
2022/10/07 02:02:53;;;;;;;9.55;3.03;;;;;;;6.76;100.00;94004.56;2083578;28;20029;-77
2022/10/07 02:04:06;;;;;;;7.13;3.03;;;;;;;6.77;100.00;94008.72;2094585;28;20066;-76
2022/10/07 02:05:10;;;;;;;6.97;3.03;;;;;;;6.69;100.00;94007.16;2090682;28;20107;-76
2022/10/07 02:06:32;;;;;;;8.07;3.35;;;;;;;6.72;100.00;93998.44;2087750;28;20035;-76
2022/10/07 02:07:54;;;;;;;8.07;3.13;;;;;;;6.70;100.00;94002.59;2083925;28;20028;-76
2022/10/07 02:08:59;;;;;;;6.15;2.95;;;;;;;6.67;100.00;93998.00;2085074;28;20064;-76
2022/10/07 02:10:36;;;;;;;8.75;2.95;;;;;;;6.68;100.00;93994.25;2087336;28;20023;-76
2022/10/07 02:11:41;;;;;;;3.60;2.53;;;;;;;6.64;100.00;93996.88;2083645;28;20016;-75
2022/10/07 02:12:51;;;;;;;5.90;2.25;;;;;;;6.52;100.00;93997.16;2079715;28;20029;-76
2022/10/07 02:15:52;;;;;;;;;;;;;;;6.59;100.00;93988.50;2134684;27;20183;-81
2022/10/07 02:17:00;;;;;;;12.48;3.28;;;;;;;6.57;100.00;93986.19;2127277;27;19963;-82
2022/10/07 02:18:07;;;;;;;8.57;2.80;;;;;;;6.59;100.00;93989.25;2117631;27;20063;-79
2022/10/07 02:19:35;;;;;;;5.60;2.70;;;;;;;6.48;100.00;93991.81;2107217;28;20032;-80
2022/10/07 02:20:38;;;;;;;10.57;3.30;;;;;;;6.42;100.00;93987.22;2112051;27;20448;-79
2022/10/07 02:21:42;;;;;;;10.55;3.35;;;;;;;6.44;100.00;93985.69;2110798;28;20031;-80
2022/10/07 02:22:45;;;;;;;6.85;3.22;;;;;;;6.48;100.00;93991.81;2111454;27;20075;-79
2022/10/07 02:23:48;;;;;;;10.52;3.60;;;;;;;6.50;100.00;93984.25;2117368;28;20024;-80
2022/10/07 02:24:54;;;;;;;6.10;3.40;;;;;;;6.36;100.00;93988.66;2119517;27;20499;-79
2022/10/07 02:25:55;;;;;;;6.82;3.35;;;;;;;6.41;100.00;93978.50;2127697;27;20086;-78
2022/10/07 02:27:00;;;;;;;8.38;2.95;;;;;;;6.43;100.00;93983.41;2110876;28;20019;-78
2022/10/07 02:28:05;;;;;;;9.82;3.33;;;;;;;6.42;100.00;93987.22;2102962;28;20021;-79
2022/10/07 02:29:09;;;;;;;7.72;2.90;;;;;;;6.39;100.00;93980.72;2102485;28;20514;-80
2022/10/07 02:30:14;;;;;;;7.32;2.80;;;;;;;6.35;100.00;93974.63;2107594;28;20036;-79
2022/10/07 02:31:19;;;;;;;9.25;3.45;;;;;;;6.37;100.00;93976.94;2119757;27;20039;-79
2022/10/07 02:32:24;;;;;;;9.50;3.30;;;;;;;6.43;100.00;93973.56;2118764;28;20118;-79
2022/10/07 02:33:29;;;;;;;11.75;3.28;;;;;;;6.37;100.00;93975.03;2111859;28;20499;-79
2022/10/07 02:34:31;;;;;;;11.10;3.22;;;;;;;6.35;100.00;93973.88;2109649;28;20059;-79
2022/10/07 02:35:46;;;;;;;10.88;3.78;;;;;;;6.30;100.00;93977.63;2098603;28;20062;-80
2022/10/07 02:36:55;;;;;;;5.25;2.75;;;;;;;6.29;100.00;93966.25;2106503;28;20021;-80
2022/10/07 02:38:00;;;;;;;10.40;3.40;;;;;;;6.25;100.00;93972.66;2107324;28;20158;-80
2022/10/07 02:39:01;;;;;;;12.85;3.25;;;;;;;6.29;100.00;93974.22;2098832;28;20028;-78
2022/10/07 02:40:03;;;;;;;9.00;3.38;;;;;;;6.22;100.00;93968.84;2098946;28;20035;-79
2022/10/07 02:41:30;;;;;;;9.15;3.42;;;;;;;6.28;100.00;93967.38;2102599;28;20101;-79
2022/10/07 02:42:41;;;;;;;10.38;2.85;;;;;;;6.26;100.00;93972.28;2072742;28;20083;-79
2022/10/07 02:43:49;;;;;;;11.07;3.60;;;;;;;6.30;100.00;93959.81;2098540;28;20048;-79
2022/10/07 02:45:32;;;;;;;4.43;2.95;;;;;;;6.39;100.00;93958.72;2102290;28;20066;-80
2022/10/07 02:46:41;;;;;;;5.20;2.75;;;;;;;6.39;100.00;93962.16;2109627;28;20023;-79
2022/10/07 02:48:09;;;;;;;5.47;2.80;;;;;;;6.35;100.00;93963.25;2103503;28;20020;-78
2022/10/07 02:49:14;;;;;;;6.15;2.72;;;;;;;6.36;100.00;93962.88;2098305;28;20460;-78
2022/10/07 02:50:24;;;;;;;7.25;3.20;;;;;;;6.36;100.00;93959.47;2094651;28;20040;-79
2022/10/07 02:51:35;;;;;;;6.10;3.42;;;;;;;6.30;100.00;93953.72;2096007;28;20029;-79
2022/10/07 02:52:37;;;;;;;9.75;3.17;;;;;;;6.21;100.00;93961.25;2092881;28;20059;-80
2022/10/07 02:53:39;;;;;;;7.55;3.10;;;;;;;6.20;100.00;93960.47;2103771;27;20548;-79
2022/10/07 02:54:54;;;;;;;5.32;2.97;;;;;;;6.29;100.00;93963.59;2109444;28;20020;-80
2022/10/07 02:55:57;;;;;;;8.30;3.28;;;;;;;6.22;100.00;93960.09;2111636;28;20031;-79
2022/10/07 02:57:00;;;;;;;7.30;3.17;;;;;;;6.27;100.00;93962.41;2106641;28;20381;-78
2022/10/07 02:58:06;;;;;;;5.78;2.70;;;;;;;6.29;100.00;93958.28;2102117;28;20028;-80
2022/10/07 02:59:10;;;;;;;7.90;3.85;;;;;;;6.37;100.00;93959.09;2087489;28;20391;-80
2022/10/07 03:00:12;;;;;;;6.05;3.10;;;;;;;6.41;100.00;93954.59;2094266;28;20493;-79
2022/10/07 03:01:19;;;;;;;4.95;2.80;;;;;;;6.49;100.00;93961.47;2087505;28;20075;-79
2022/10/07 03:02:48;;;;;;;8.57;3.83;;;;;;;6.62;100.00;93961.16;2094808;28;20033;-79
2022/10/07 03:03:49;;;;;;;4.88;3.38;;;;;;;6.64;100.00;93959.69;2106069;27;20066;-79
2022/10/07 03:04:50;;;;;;;9.13;3.90;;;;;;;6.69;100.00;93958.56;2114662;28;20027;-79
2022/10/07 03:05:51;;;;;;;13.77;4.07;;;;;;;6.69;100.00;93950.59;2106649;28;20025;-80
2022/10/07 03:06:53;;;;;;;11.80;3.97;;;;;;;6.70;100.00;93952.13;2110515;28;20129;-79
2022/10/07 03:08:03;;;;;;;7.80;3.80;;;;;;;6.77;100.00;93954.84;2110535;28;20016;-79
2022/10/07 03:09:05;;;;;;;8.43;3.60;;;;;;;6.80;100.00;93956.72;2099125;28;20039;-79
2022/10/07 03:10:08;;;;;;;7.93;3.20;;;;;;;6.78;100.00;93954.44;2102393;28;20036;-79
2022/10/07 03:11:09;;;;;;;12.07;3.95;;;;;;;6.85;100.00;93958.28;2102272;28;20056;-80
2022/10/07 03:12:10;;;;;;;4.13;3.15;;;;;;;6.87;100.00;93956.78;2106248;28;20058;-79
2022/10/07 03:13:11;;;;;;;5.72;3.60;;;;;;;6.93;100.00;93955.28;2095385;28;20024;-79
2022/10/07 03:14:12;;;;;;;12.98;3.63;;;;;;;6.92;100.00;93956.44;2109898;28;20032;-79
2022/10/07 03:15:13;;;;;;;8.18;3.75;;;;;;;7.02;100.00;93952.28;2101482;28;20040;-80
2022/10/07 03:16:14;;;;;;;8.02;3.67;;;;;;;7.01;100.00;93953.44;2094264;28;20036;-80
2022/10/07 03:17:16;;;;;;;8.18;3.20;;;;;;;7.06;100.00;93959.16;2097890;28;20027;-79
2022/10/07 03:18:28;;;;;;;9.27;3.55;;;;;;;7.15;100.00;93958.81;2100465;28;20077;-79
2022/10/07 03:19:28;;;;;;;7.32;3.53;;;;;;;7.15;100.00;93953.50;2096074;28;20117;-80
2022/10/07 03:20:31;;;;;;;11.75;4.20;;;;;;;7.22;100.00;93952.78;2093122;28;20021;-79
2022/10/07 03:21:32;;;;;;;5.35;3.63;;;;;;;7.31;100.00;93956.63;2090105;28;20024;-79
2022/10/07 03:22:33;;;;;;;9.15;4.28;;;;;;;7.37;100.00;93954.34;2102008;28;20024;-80
2022/10/07 03:23:34;;;;;;;6.18;4.40;;;;;;;7.44;100.00;93959.72;2109654;28;20473;-79
2022/10/07 03:24:35;;;;;;;10.15;3.60;;;;;;;7.43;100.00;93963.50;2102312;28;20095;-80
2022/10/07 03:25:36;;;;;;;11.85;3.65;;;;;;;7.42;100.00;93959.34;2106068;28;20031;-79
2022/10/07 03:26:37;;;;;;;12.82;4.45;;;;;;;7.45;100.00;93957.81;2097534;28;20021;-79
2022/10/07 03:27:40;;;;;;;9.55;3.92;;;;;;;7.44;100.00;93951.72;2100501;28;20039;-79
2022/10/07 03:28:41;;;;;;;5.68;3.63;;;;;;;7.40;100.00;93952.84;2105375;28;20024;-80
2022/10/07 03:29:42;;;;;;;6.45;3.80;;;;;;;7.49;100.00;93955.94;2104606;28;20151;-80
2022/10/07 03:30:43;;;;;;;11.73;3.83;;;;;;;7.49;100.00;93956.69;2104588;28;20493;-80
2022/10/07 03:31:45;;;;;;;13.52;3.95;;;;;;;7.51;100.00;93959.75;2095541;28;20036;-79
2022/10/07 03:32:46;;;;;;;7.78;3.70;;;;;;;7.58;100.00;93948.34;2104333;28;20023;-79
2022/10/07 03:33:49;;;;;;;12.88;3.80;;;;;;;7.67;100.00;93948.75;2096307;28;20016;-79
2022/10/07 03:34:51;;;;;;;10.20;3.80;;;;;;;7.67;100.00;93956.75;2091007;28;20043;-79
2022/10/07 03:35:52;;;;;;;5.35;3.90;;;;;;;7.66;100.00;93952.56;2100553;28;20074;-80
2022/10/07 03:36:54;;;;;;;9.27;4.10;;;;;;;7.62;100.00;93946.47;2097059;28;20222;-79
2022/10/07 03:37:55;;;;;;;8.23;4.15;;;;;;;7.72;100.00;93951.06;2108159;28;20030;-79
2022/10/07 03:38:57;;;;;;;9.32;3.90;;;;;;;7.76;100.00;93948.41;2103896;28;20523;-80
2022/10/07 03:39:58;;;;;;;9.57;3.97;;;;;;;7.77;100.00;93944.59;2104459;28;20535;-79
2022/10/07 03:41:00;;;;;;;8.57;4.00;;;;;;;7.82;100.00;93949.56;2104913;28;20012;-79
2022/10/07 03:42:01;;;;;;;9.13;4.45;;;;;;;7.86;100.00;93944.22;2104281;28;20035;-79
2022/10/07 03:43:03;;;;;;;10.27;3.97;;;;;;;7.82;100.00;93946.91;2096279;28;20039;-79
2022/10/07 03:44:04;;;;;;;13.07;4.18;;;;;;;7.85;100.00;93942.72;2095898;28;20020;-79
2022/10/07 03:45:06;;;;;;;7.50;3.60;;;;;;;7.88;100.00;93945.41;2095993;28;20028;-79
2022/10/07 03:46:07;;;;;;;6.30;3.97;;;;;;;7.91;100.00;93946.56;2088104;28;20029;-78
2022/10/07 03:47:08;;;;;;;10.75;3.90;;;;;;;7.96;100.00;93943.50;2095718;28;20320;-79
2022/10/07 03:48:09;;;;;;;6.95;4.00;;;;;;;7.97;100.00;93940.47;2113187;28;20032;-79
2022/10/07 03:49:10;;;;;;;12.23;3.92;;;;;;;8.00;100.00;93938.97;2104680;28;20048;-79
2022/10/07 03:50:11;;;;;;;9.88;4.18;;;;;;;8.00;100.00;93942.38;2087768;28;20048;-80
2022/10/07 03:51:12;;;;;;;5.55;3.90;;;;;;;8.06;100.00;93937.44;2095705;28;20043;-80
2022/10/07 03:52:13;;;;;;;8.88;3.83;;;;;;;8.11;100.00;93945.03;2112116;28;20024;-80
2022/10/07 03:53:14;;;;;;;9.20;3.65;;;;;;;8.08;100.00;93933.25;2119125;27;20050;-80
2022/10/07 03:54:15;;;;;;;7.72;4.13;;;;;;;8.08;100.00;93930.59;2113090;28;20055;-80
2022/10/07 03:55:16;;;;;;;9.57;3.63;;;;;;;8.13;100.00;93934.03;2095798;28;20040;-80
2022/10/07 03:56:17;;;;;;;10.60;4.00;;;;;;;8.10;100.00;93932.88;2087740;28;20497;-78
2022/10/07 03:58:38;;;;;;;8.35;3.53;;;;;;;8.13;100.00;93934.03;2096774;28;20032;-80
2022/10/07 03:59:39;;;;;;;6.15;3.78;;;;;;;8.22;100.00;93929.84;2102279;28;20464;-80
2022/10/07 04:00:40;;;;;;;7.03;3.80;;;;;;;8.28;100.00;93932.88;2100229;28;20627;-79
2022/10/07 04:01:41;;;;;;;10.05;3.78;;;;;;;8.31;100.00;93935.56;2088003;28;20021;-80
2022/10/07 04:02:42;;;;;;;8.30;3.70;;;;;;;8.33;100.00;93929.84;2095162;28;20505;-79
2022/10/07 04:03:44;;;;;;;9.50;3.58;;;;;;;8.26;100.00;93930.59;2110544;28;20029;-80
2022/10/07 04:04:45;;;;;;;8.57;4.43;;;;;;;8.27;100.00;93926.03;2112477;28;20015;-79
2022/10/07 04:06:00;;;;;;;7.05;3.50;;;;;;;8.28;100.00;93925.66;2103915;28;20016;-80
2022/10/07 04:07:01;;;;;;;7.30;4.13;;;;;;;8.28;100.00;93925.66;2097900;28;20020;-80
2022/10/07 04:08:03;;;;;;;5.60;3.85;;;;;;;8.29;100.00;93926.41;2091703;28;20021;-79
2022/10/07 04:09:04;;;;;;;8.82;3.95;;;;;;;8.29;100.00;93932.50;2104557;28;20202;-79
2022/10/07 04:10:05;;;;;;;10.23;4.68;;;;;;;8.35;100.00;93929.47;2103729;28;20062;-79
2022/10/07 04:11:06;;;;;;;9.95;4.15;;;;;;;8.36;100.00;93929.09;2099888;28;20081;-79
2022/10/07 04:12:07;;;;;;;7.85;3.72;;;;;;;8.43;100.00;93931.78;2100079;28;20134;-79
2022/10/07 04:13:08;;;;;;;8.70;3.45;;;;;;;8.39;100.00;93930.25;2095546;28;20028;-79
2022/10/07 04:14:09;;;;;;;11.20;3.50;;;;;;;8.39;100.00;93932.94;2103867;28;20056;-79
2022/10/07 04:15:13;;;;;;;11.30;5.03;;;;;;;8.47;100.00;93926.44;2103831;28;20034;-80
2022/10/07 04:16:15;;;;;;;10.38;3.85;;;;;;;8.47;100.00;93927.22;2111890;28;20491;-80
2022/10/07 04:17:20;;;;;;;8.55;3.70;;;;;;;8.45;100.00;93931.38;2095803;28;20035;-79
2022/10/07 04:18:22;;;;;;;5.30;3.90;;;;;;;8.48;100.00;93923.41;2096716;28;20071;-79
2022/10/07 04:19:23;;;;;;;11.63;4.32;;;;;;;8.52;100.00;93928.72;2092883;28;20352;-78
2022/10/07 04:20:25;;;;;;;8.73;3.70;;;;;;;8.50;100.00;93921.09;2098918;28;20109;-80
2022/10/07 04:21:26;;;;;;;13.90;4.00;;;;;;;8.54;100.00;93921.09;2091933;28;20032;-80
2022/10/07 04:22:26;;;;;;;10.73;4.18;;;;;;;8.51;100.00;93917.28;2095657;28;20047;-79
2022/10/07 04:23:28;;;;;;;9.63;4.43;;;;;;;8.50;100.00;93921.09;2096361;28;20020;-79
2022/10/07 04:24:28;;;;;;;7.57;3.75;;;;;;;8.52;100.00;93916.16;2103226;27;20416;-79
2022/10/07 04:25:32;;;;;;;8.60;3.83;;;;;;;8.55;100.00;93918.03;2112723;28;20024;-79
2022/10/07 04:26:33;;;;;;;11.40;3.50;;;;;;;8.56;100.00;93918.84;2104055;28;20572;-79
2022/10/07 04:27:35;;;;;;;10.40;3.95;;;;;;;8.60;100.00;93919.56;2095769;28;20032;-79
2022/10/07 04:28:37;;;;;;;16.90;4.32;;;;;;;8.61;100.00;93918.44;2095356;28;20050;-79
2022/10/07 04:29:40;;;;;;;14.88;4.57;;;;;;;8.66;100.00;93919.97;2085432;28;20478;-79
2022/10/07 04:30:42;;;;;;;9.90;4.38;;;;;;;8.66;100.00;93917.28;2091643;28;20029;-79
2022/10/07 04:31:43;;;;;;;8.80;3.88;;;;;;;8.63;100.00;93918.06;2098402;28;20397;-80
2022/10/07 04:32:44;;;;;;;17.02;4.20;;;;;;;8.66;100.00;93909.28;2097642;28;20024;-80
2022/10/07 04:33:45;;;;;;;18.85;4.13;;;;;;;8.64;100.00;93914.22;2095433;28;20505;-80
2022/10/07 04:34:49;;;;;;;16.27;4.18;;;;;;;8.68;100.00;93917.66;2093404;28;20128;-80
2022/10/07 04:35:51;;;;;;;21.75;4.15;;;;;;;8.68;100.00;93912.31;2098452;28;20110;-79
2022/10/07 04:36:53;;;;;;;19.25;4.30;;;;;;;8.65;100.00;93913.09;2100101;28;20059;-79
2022/10/07 04:37:54;;;;;;;15.73;4.43;;;;;;;8.71;100.00;93915.00;2083159;28;20025;-80
2022/10/07 04:38:55;;;;;;;17.73;4.30;;;;;;;8.75;100.00;93907.00;2085475;28;20381;-79
2022/10/07 04:39:56;;;;;;;18.25;4.10;;;;;;;8.75;100.00;93910.41;2081975;28;20029;-79
2022/10/07 04:40:58;;;;;;;18.45;4.45;;;;;;;8.74;100.00;93908.91;2095887;28;20024;-79
2022/10/07 04:41:58;;;;;;;20.23;4.18;;;;;;;8.79;100.00;93905.84;2097023;28;20301;-79
2022/10/07 04:43:18;;;;;;;13.68;4.05;;;;;;;8.80;100.00;93906.59;2098131;28;20032;-79
2022/10/07 04:44:19;;;;;;;18.20;4.63;;;;;;;8.78;100.00;93900.88;2092847;28;20051;-79
2022/10/07 04:45:20;;;;;;;12.70;3.80;;;;;;;8.79;100.00;93905.84;2100178;28;20332;-80
2022/10/07 04:46:21;;;;;;;13.73;3.78;;;;;;;8.79;100.00;93900.50;2100165;28;20500;-79
2022/10/07 04:47:21;;;;;;;18.23;4.07;;;;;;;8.79;100.00;93895.19;2099548;28;20099;-80
2022/10/07 04:48:22;;;;;;;16.88;4.47;;;;;;;8.82;100.00;93891.75;2101043;28;20031;-79
2022/10/07 04:49:24;;;;;;;11.27;3.90;;;;;;;8.82;100.00;93898.97;2100574;28;20090;-79
2022/10/07 04:50:25;;;;;;;16.02;4.32;;;;;;;8.88;100.00;93902.78;2096983;28;20402;-79
2022/10/07 04:51:26;;;;;;;13.52;3.90;;;;;;;8.87;100.00;93898.59;2083180;28;20376;-78
2022/10/07 04:52:27;;;;;;;11.90;4.00;;;;;;;8.90;100.00;93895.13;2092677;28;20077;-79
2022/10/07 04:53:28;;;;;;;23.65;4.60;;;;;;;8.87;100.00;93898.59;2101413;28;20028;-79
2022/10/07 04:54:30;;;;;;;21.10;5.18;;;;;;;8.88;100.00;93905.44;2100936;28;20379;-79
2022/10/07 04:55:36;;;;;;;12.98;3.95;;;;;;;8.90;100.00;93905.81;2100295;28;20052;-79
2022/10/07 04:56:37;;;;;;;9.73;4.10;;;;;;;8.91;100.00;93898.56;2100854;28;20038;-79
2022/10/07 04:57:38;;;;;;;12.50;4.28;;;;;;;8.91;100.00;93896.69;2096986;28;20027;-79
2022/10/07 04:58:39;;;;;;;16.88;5.65;;;;;;;8.98;100.00;93901.22;2086131;28;20702;-79
2022/10/07 04:59:40;;;;;;;20.70;5.63;;;;;;;9.04;100.00;93894.34;2101819;28;20060;-79
2022/10/07 05:00:47;;;;;;;15.05;5.82;;;;;;;9.03;100.00;93898.16;2100949;28;20028;-79
2022/10/07 05:01:48;;;;;;;18.27;5.50;;;;;;;9.04;100.00;93889.78;2094360;28;20507;-80
2022/10/07 05:02:49;;;;;;;13.73;5.22;;;;;;;9.07;100.00;93889.00;2109982;28;20459;-78
2022/10/07 05:03:50;;;;;;;19.08;6.55;;;;;;;9.06;100.00;93892.06;2108807;28;20030;-80
2022/10/07 05:04:51;;;;;;;17.13;5.22;;;;;;;9.07;100.00;93889.00;2110590;28;20098;-79
2022/10/07 05:05:55;;;;;;;15.38;5.90;;;;;;;9.09;100.00;93893.97;2102417;28;20111;-79
2022/10/07 05:06:56;;;;;;;21.10;5.38;;;;;;;9.11;100.00;93888.22;2109893;27;20055;-79
2022/10/07 05:07:57;;;;;;;13.05;6.20;;;;;;;9.15;100.00;93891.63;2110105;28;20033;-79
2022/10/07 05:08:58;;;;;;;19.17;5.85;;;;;;;9.15;100.00;93888.97;2092872;28;20047;-79